createdAt,value
2022-10-01T00:11:43.316Z,1015
2022-10-01T00:43:02.887Z,1016
2022-10-01T01:14:10.249Z,1015
2022-10-01T01:45:20.431Z,1015
2022-10-01T02:16:29.867Z,1014
2022-10-01T02:46:28.699Z,1014
2022-10-01T03:16:35.815Z,1014
2022-10-01T04:19:04.577Z,1014
2022-10-01T04:49:02.006Z,1014
2022-10-01T05:19:11.151Z,1014
2022-10-01T05:49:20.570Z,1013
2022-10-01T06:19:26.189Z,1013
2022-10-01T07:19:46.363Z,1013
2022-10-01T08:07:04.074Z,1013
2022-10-01T08:36:51.627Z,1013
2022-10-01T09:37:11.366Z,1014
2022-10-01T10:07:18.673Z,1014
2022-10-01T10:37:25.803Z,1014
2022-10-01T11:37:50.000Z,1015
2022-10-01T12:08:01.824Z,1015
2022-10-01T12:38:12.560Z,1015
2022-10-01T13:08:23.751Z,1015
2022-10-01T13:38:36.735Z,1015
2022-10-01T14:38:51.616Z,1016
2022-10-01T15:09:00.148Z,1015
2022-10-01T15:39:10.128Z,1016
2022-10-01T16:09:17.493Z,1016
2022-10-01T16:39:30.210Z,1016
2022-10-01T17:09:35.910Z,1017
2022-10-01T17:39:47.550Z,1017
2022-10-01T18:09:58.985Z,1018
2022-10-01T18:40:09.658Z,1018
2022-10-01T19:10:20.393Z,1019
2022-10-01T20:10:39.264Z,1020
2022-10-01T20:40:48.994Z,1020
2022-10-01T21:10:59.326Z,1020
2022-10-01T21:41:11.043Z,1020
2022-10-01T22:41:29.041Z,1021
2022-10-01T23:11:41.093Z,1021
2022-10-01T23:41:46.316Z,1022
